createdAt,value
2023-05-01T00:01:46.457Z,91742.92
2023-05-01T00:04:14.636Z,91740.31
2023-05-01T00:06:42.979Z,91738.00
2023-05-01T00:09:11.271Z,91739.27
2023-05-01T00:11:39.424Z,91741.70
2023-05-01T00:14:07.518Z,91743.37
2023-05-01T00:16:36.730Z,91743.42
2023-05-01T00:19:05.188Z,91742.88
2023-05-01T00:21:33.394Z,91749.20
2023-05-01T00:24:01.541Z,91751.17
2023-05-01T00:26:31.659Z,91750.89
2023-05-01T00:29:00.059Z,91748.23
2023-05-01T00:31:28.459Z,91746.98
2023-05-01T00:33:57.341Z,91746.86
2023-05-01T00:36:25.497Z,91745.77
2023-05-01T00:38:53.634Z,91754.05
2023-05-01T00:41:21.838Z,91748.28
2023-05-01T00:43:50.003Z,91754.92
2023-05-01T00:46:18.573Z,91756.38
2023-05-01T00:48:46.918Z,91760.44
2023-05-01T00:51:15.362Z,91762.73
2023-05-01T00:53:43.446Z,91768.09
2023-05-01T00:56:11.744Z,91768.26
2023-05-01T00:58:40.593Z,91771.70
2023-05-01T01:01:10.165Z,91772.75
2023-05-01T01:03:38.591Z,91772.16
2023-05-01T01:06:06.699Z,91776.01
2023-05-01T01:08:49.728Z,91778.40
2023-05-01T01:11:18.077Z,91781.17
2023-05-01T01:13:56.233Z,91781.88
2023-05-01T01:16:43.636Z,91783.16
2023-05-01T01:19:14.624Z,91786.96
2023-05-01T01:21:45.201Z,91786.88
2023-05-01T01:24:32.455Z,91788.21
2023-05-01T01:27:20.198Z,91780.59
2023-05-01T01:29:56.532Z,91780.73
2023-05-01T01:32:34.176Z,91784.53
2023-05-01T01:35:06.831Z,91784.14
2023-05-01T01:37:53.203Z,91780.44
2023-05-01T01:40:24.471Z,91776.20
2023-05-01T01:43:07.749Z,91774.27
2023-05-01T01:45:36.173Z,91774.05
2023-05-01T01:48:05.944Z,91775.09
2023-05-01T01:50:36.888Z,91777.98
2023-05-01T01:53:05.877Z,91783.79
2023-05-01T01:55:36.070Z,91787.52
2023-05-01T01:58:06.339Z,91791.17
2023-05-01T02:00:35.886Z,91794.61
2023-05-01T02:03:04.114Z,91799.61
2023-05-01T02:05:33.301Z,91803.97
2023-05-01T02:08:02.435Z,91802.67
2023-05-01T02:10:31.381Z,91806.76
2023-05-01T02:13:00.327Z,91803.52
2023-05-01T02:15:29.594Z,91804.70
2023-05-01T02:17:59.621Z,91807.16
2023-05-01T02:20:28.613Z,91804.77
2023-05-01T02:22:57.725Z,91807.94
2023-05-01T02:25:29.556Z,91808.37
2023-05-01T02:28:00.304Z,91811.65
2023-05-01T02:30:28.601Z,91811.35
2023-05-01T02:32:57.697Z,91806.39
2023-05-01T02:35:26.471Z,91804.34
2023-05-01T02:37:54.692Z,91800.19
2023-05-01T02:40:22.878Z,91800.45
2023-05-01T02:42:52.052Z,91798.67
2023-05-01T02:45:23.759Z,91799.48
2023-05-01T02:47:54.720Z,91803.67
2023-05-01T02:50:23.534Z,91807.58
2023-05-01T02:52:51.712Z,91809.73
2023-05-01T02:55:27.325Z,91819.97
2023-05-01T02:57:58.249Z,91824.29
2023-05-01T03:00:26.717Z,91823.69
2023-05-01T03:02:55.110Z,91821.64
2023-05-01T03:05:23.299Z,91819.45
2023-05-01T03:07:51.460Z,91818.32
2023-05-01T03:10:19.736Z,91818.28
2023-05-01T03:12:47.875Z,91822.39
2023-05-01T03:15:18.682Z,91823.73
2023-05-01T03:17:47.071Z,91827.41
2023-05-01T03:20:16.280Z,91825.91
2023-05-01T03:22:44.512Z,91830.52
2023-05-01T03:25:13.305Z,91831.46
2023-05-01T03:27:41.820Z,91830.16
2023-05-01T03:30:10.766Z,91832.64
2023-05-01T03:32:39.247Z,91835.74
2023-05-01T03:35:09.494Z,91838.21
2023-05-01T03:37:38.403Z,91838.88
2023-05-01T03:40:09.184Z,91840.45
2023-05-01T03:43:15.854Z,91846.50
2023-05-01T03:45:44.967Z,91846.73
2023-05-01T03:48:14.413Z,91851.22
2023-05-01T03:50:42.640Z,91854.30
2023-05-01T03:53:11.412Z,91856.40
2023-05-01T03:55:40.398Z,91860.52
2023-05-01T03:58:08.844Z,91862.20
2023-05-01T04:00:37.798Z,91863.30
2023-05-01T04:03:06.400Z,91872.19
2023-05-01T04:05:35.201Z,91874.80
2023-05-01T04:08:04.586Z,91876.92
2023-05-01T04:10:32.782Z,91878.36
2023-05-01T04:13:05.240Z,91879.94
2023-05-01T04:15:33.724Z,91883.02
2023-05-01T04:18:02.086Z,91881.55
2023-05-01T04:20:31.513Z,91878.29
2023-05-01T04:22:59.603Z,91882.05
2023-05-01T04:25:28.055Z,91887.45
2023-05-01T04:27:58.358Z,91890.97
2023-05-01T04:30:26.589Z,91892.34
2023-05-01T04:32:54.916Z,91895.39
2023-05-01T04:35:23.800Z,91900.67
2023-05-01T04:37:52.345Z,91900.77
2023-05-01T04:40:20.621Z,91905.44
2023-05-01T04:42:48.738Z,91911.01
2023-05-01T04:45:16.917Z,91905.09
2023-05-01T04:47:45.148Z,91905.11
2023-05-01T04:50:13.427Z,91908.11
2023-05-01T04:52:41.622Z,91911.25
2023-05-01T04:55:10.212Z,91917.70
2023-05-01T04:57:41.663Z,91916.49
2023-05-01T05:00:10.153Z,91915.16
2023-05-01T05:02:46.662Z,91918.09
2023-05-01T05:05:15.837Z,91917.66
2023-05-01T05:07:43.894Z,91920.89
2023-05-01T05:10:30.511Z,91919.21
2023-05-01T05:13:37.314Z,91925.75
2023-05-01T05:16:11.284Z,91932.86
2023-05-01T05:18:39.743Z,91930.00
2023-05-01T05:21:08.748Z,91935.02
2023-05-01T05:23:37.282Z,91933.63
2023-05-01T05:26:05.866Z,91937.23
2023-05-01T05:28:34.020Z,91935.86
2023-05-01T05:31:02.205Z,91933.84
2023-05-01T05:33:30.811Z,91936.73
2023-05-01T05:36:00.016Z,91934.67
2023-05-01T05:38:31.417Z,91939.00
2023-05-01T05:41:01.099Z,91942.23
2023-05-01T05:43:30.198Z,91944.84
2023-05-01T05:45:59.026Z,91947.89
2023-05-01T05:48:27.897Z,91944.04
2023-05-01T05:50:56.812Z,91941.19
2023-05-01T05:53:26.257Z,91943.57
2023-05-01T05:55:55.096Z,91941.96
2023-05-01T05:58:24.788Z,91944.04
2023-05-01T06:00:56.215Z,91948.42
2023-05-01T06:03:24.645Z,91946.08
2023-05-01T06:05:54.657Z,91947.27
2023-05-01T06:08:22.996Z,91946.61
2023-05-01T06:10:51.595Z,91947.98
2023-05-01T06:13:19.797Z,91949.86
2023-05-01T06:15:49.740Z,91945.25
2023-05-01T06:18:18.131Z,91949.39
2023-05-01T06:20:47.379Z,91953.15
2023-05-01T06:23:16.406Z,91957.85
2023-05-01T06:26:03.132Z,91956.70
2023-05-01T06:28:31.669Z,91960.87
2023-05-01T06:30:59.934Z,91956.39
2023-05-01T06:33:28.287Z,91958.12
2023-05-01T06:36:17.498Z,91960.21
2023-05-01T06:38:48.959Z,91963.33
2023-05-01T06:41:17.193Z,91966.50
2023-05-01T06:43:46.237Z,91966.27
2023-05-01T06:46:14.517Z,91963.90
2023-05-01T06:48:42.667Z,91964.08
2023-05-01T06:51:10.944Z,91962.86
2023-05-01T06:53:40.489Z,91965.48
2023-05-01T06:56:08.981Z,91964.46
2023-05-01T06:58:37.231Z,91966.69
2023-05-01T07:01:05.628Z,91964.94
2023-05-01T07:03:33.950Z,91967.45
2023-05-01T07:06:02.219Z,91966.80
2023-05-01T07:08:30.913Z,91967.65
2023-05-01T07:10:58.980Z,91962.73
2023-05-01T07:13:27.106Z,91959.66
2023-05-01T07:15:55.357Z,91963.95
2023-05-01T07:18:23.650Z,91963.43
2023-05-01T07:20:52.982Z,91960.83
2023-05-01T07:23:21.216Z,91964.30
2023-05-01T07:25:49.374Z,91962.20
2023-05-01T07:28:18.298Z,91959.38
2023-05-01T07:30:46.402Z,91964.26
2023-05-01T07:33:14.803Z,91963.50
2023-05-01T07:35:43.342Z,91963.84
2023-05-01T07:38:11.600Z,91964.58
2023-05-01T07:40:39.729Z,91963.91
2023-05-01T07:43:11.304Z,91966.77
2023-05-01T07:45:40.039Z,91968.60
2023-05-01T07:48:08.564Z,91963.30
2023-05-01T07:50:36.850Z,91959.55
2023-05-01T07:53:04.984Z,91957.02
2023-05-01T07:55:33.557Z,91959.02
2023-05-01T07:58:01.718Z,91959.73
2023-05-01T08:00:29.906Z,91958.80
2023-05-01T08:02:58.198Z,91955.64
2023-05-01T08:05:26.314Z,91957.54
2023-05-01T08:07:54.343Z,91954.73
2023-05-01T08:10:22.521Z,91952.63
2023-05-01T08:12:50.756Z,91957.63
2023-05-01T08:15:20.152Z,91957.88
2023-05-01T08:17:48.301Z,91957.33
2023-05-01T08:20:16.568Z,91956.36
2023-05-01T08:22:44.871Z,91962.28
2023-05-01T08:25:13.163Z,91963.51
2023-05-01T08:27:41.361Z,91964.98
2023-05-01T08:30:09.765Z,91964.00
2023-05-01T08:32:38.029Z,91962.02
2023-05-01T08:35:06.450Z,91962.02
2023-05-01T08:37:35.314Z,91962.13
2023-05-01T08:40:08.662Z,91963.10
2023-05-01T08:42:39.684Z,91963.80
2023-05-01T08:45:08.735Z,91962.53
2023-05-01T08:47:38.602Z,91965.49
2023-05-01T08:50:14.114Z,91968.63
2023-05-01T08:52:43.385Z,91963.63
2023-05-01T08:55:15.561Z,91963.27
2023-05-01T08:57:47.415Z,91960.90
2023-05-01T09:00:22.142Z,91958.75
2023-05-01T09:02:51.355Z,91955.94
2023-05-01T09:05:20.690Z,91960.34
2023-05-01T09:07:48.895Z,91957.48
2023-05-01T09:10:20.531Z,91957.48
2023-05-01T09:12:52.570Z,91957.34
2023-05-01T09:15:21.753Z,91957.92
2023-05-01T09:17:50.865Z,91957.27
2023-05-01T09:20:19.671Z,91958.23
2023-05-01T09:22:48.026Z,91959.37
2023-05-01T09:25:16.167Z,91959.35
2023-05-01T09:27:44.535Z,91964.25
2023-05-01T09:30:30.463Z,91964.57
2023-05-01T09:33:05.251Z,91959.75
2023-05-01T09:38:58.174Z,91957.80
2023-05-01T09:41:27.090Z,91957.42
2023-05-01T09:43:56.313Z,91956.60
2023-05-01T09:46:25.350Z,91955.52
2023-05-01T09:49:03.473Z,91953.48
2023-05-01T09:51:34.964Z,91956.41
2023-05-01T09:54:05.070Z,91956.96
2023-05-01T09:56:34.409Z,91947.36
2023-05-01T09:59:19.659Z,91946.84
2023-05-01T10:01:51.483Z,91942.67
2023-05-01T10:04:29.585Z,91943.89
2023-05-01T10:06:58.021Z,91948.57
2023-05-01T10:09:29.890Z,91949.98
2023-05-01T10:11:59.310Z,91948.02
2023-05-01T10:14:29.868Z,91952.15
2023-05-01T10:16:58.254Z,91955.57
2023-05-01T10:19:26.549Z,91955.54
2023-05-01T10:21:55.020Z,91954.13
2023-05-01T10:24:23.278Z,91957.27
2023-05-01T10:26:51.499Z,91952.66
2023-05-01T10:29:21.000Z,91950.90
2023-05-01T10:31:49.232Z,91951.80
2023-05-01T10:34:18.732Z,91953.38
2023-05-01T10:36:51.589Z,91953.36
2023-05-01T10:39:35.863Z,91949.98
2023-05-01T10:42:17.901Z,91949.36
2023-05-01T10:44:48.146Z,91947.81
2023-05-01T10:47:25.611Z,91944.83
2023-05-01T10:50:10.479Z,91951.67
2023-05-01T10:52:58.044Z,91950.04
2023-05-01T10:55:32.687Z,91952.94
2023-05-01T10:58:00.872Z,91956.11
2023-05-01T11:00:29.205Z,91949.85
2023-05-01T11:03:15.987Z,91949.78
2023-05-01T11:06:05.580Z,91952.02
2023-05-01T11:08:35.081Z,91949.17
2023-05-01T11:11:24.237Z,91945.23
2023-05-01T11:13:56.324Z,91945.23
2023-05-01T11:16:37.506Z,91943.93
2023-05-01T11:19:06.455Z,91941.70
2023-05-01T11:21:35.367Z,91943.16
2023-05-01T11:24:04.098Z,91944.58
2023-05-01T11:26:32.951Z,91944.06
2023-05-01T11:29:01.824Z,91944.73
2023-05-01T11:31:30.046Z,91944.02
2023-05-01T11:33:59.027Z,91945.30
2023-05-01T11:36:28.407Z,91945.30
2023-05-01T11:38:57.796Z,91945.23
2023-05-01T11:41:27.145Z,91943.64
2023-05-01T11:43:57.594Z,91942.14
2023-05-01T11:46:32.596Z,91937.52
2023-05-01T11:49:02.012Z,91937.45
2023-05-01T11:51:31.108Z,91931.38
2023-05-01T11:54:00.604Z,91930.49
2023-05-01T11:56:29.186Z,91925.91
2023-05-01T11:58:58.776Z,91926.42
2023-05-01T12:01:36.683Z,91924.73
2023-05-01T12:04:05.418Z,91916.84
2023-05-01T12:06:45.159Z,91921.42
2023-05-01T12:09:17.506Z,91919.64
2023-05-01T12:11:46.294Z,91922.52
2023-05-01T12:14:15.289Z,91922.69
2023-05-01T12:16:43.992Z,91922.76
2023-05-01T12:19:15.666Z,91922.02
2023-05-01T12:21:43.752Z,91922.20
2023-05-01T12:24:11.881Z,91920.17
2023-05-01T12:26:40.784Z,91918.46
2023-05-01T12:29:09.391Z,91921.73
2023-05-01T12:31:38.486Z,91911.53
2023-05-01T12:34:07.757Z,91913.39
2023-05-01T12:36:36.825Z,91911.96
2023-05-01T12:39:04.972Z,91909.80
2023-05-01T12:41:46.809Z,91908.95
2023-05-01T12:44:21.013Z,91906.67
2023-05-01T12:47:15.177Z,91901.40
2023-05-01T12:49:43.403Z,91902.86
2023-05-01T12:52:11.676Z,91904.09
2023-05-01T12:54:40.874Z,91905.52
2023-05-01T12:57:10.392Z,91904.67
2023-05-01T12:59:39.429Z,91907.62
2023-05-01T13:02:08.906Z,91904.45
2023-05-01T13:04:37.433Z,91905.55
2023-05-01T13:07:12.847Z,91902.20
2023-05-01T13:09:50.940Z,91902.63
2023-05-01T13:12:19.238Z,91901.86
2023-05-01T13:14:48.194Z,91906.67
2023-05-01T13:17:36.630Z,91900.44
2023-05-01T13:20:05.461Z,91897.23
2023-05-01T13:22:34.511Z,91897.11
2023-05-01T13:25:04.268Z,91899.23
2023-05-01T13:27:32.666Z,91898.95
2023-05-01T13:30:02.020Z,91900.45
2023-05-01T13:32:32.011Z,91897.13
2023-05-01T13:35:03.153Z,91898.44
2023-05-01T13:37:32.635Z,91899.84
2023-05-01T13:40:01.138Z,91902.52
2023-05-01T13:42:29.433Z,91894.89
2023-05-01T13:44:58.204Z,91897.30
2023-05-01T13:47:27.563Z,91896.63
2023-05-01T13:49:55.937Z,91896.50
2023-05-01T13:52:24.661Z,91894.19
2023-05-01T13:54:53.338Z,91892.37
2023-05-01T13:57:21.477Z,91895.65
2023-05-01T13:59:49.573Z,91894.83
2023-05-01T14:02:28.097Z,91892.92
2023-05-01T14:04:58.596Z,91892.70
2023-05-01T14:07:28.860Z,91892.89
2023-05-01T14:09:58.361Z,91890.37
2023-05-01T14:12:27.951Z,91890.94
2023-05-01T14:14:56.586Z,91891.98
2023-05-01T14:17:38.070Z,91892.53
2023-05-01T14:20:06.912Z,91892.88
2023-05-01T14:22:41.954Z,91895.77
2023-05-01T14:25:26.837Z,91895.54
2023-05-01T14:27:55.456Z,91890.57
2023-05-01T14:30:33.566Z,91893.80
2023-05-01T14:33:02.612Z,91895.20
2023-05-01T14:35:30.785Z,91896.56
2023-05-01T14:38:12.501Z,91898.97
2023-05-01T14:40:41.241Z,91902.23
2023-05-01T14:43:14.177Z,91899.88
2023-05-01T14:45:43.273Z,91899.49
2023-05-01T14:48:16.414Z,91906.05
2023-05-01T14:50:44.644Z,91901.88
2023-05-01T14:53:13.941Z,91898.44
2023-05-01T14:55:42.288Z,91899.51
2023-05-01T14:58:10.413Z,91897.96
2023-05-01T15:00:38.553Z,91896.02
2023-05-01T15:03:06.844Z,91898.73
2023-05-01T15:05:35.034Z,91897.23
2023-05-01T15:08:05.692Z,91901.36
2023-05-01T15:10:34.119Z,91904.41
2023-05-01T15:13:02.218Z,91900.70
2023-05-01T15:15:30.369Z,91898.23
2023-05-01T15:17:58.581Z,91900.05
2023-05-01T15:20:26.773Z,91896.30
2023-05-01T15:22:54.972Z,91895.02
2023-05-01T15:25:23.180Z,91896.39
2023-05-01T15:27:51.580Z,91899.23
2023-05-01T15:30:19.730Z,91897.23
2023-05-01T15:32:48.730Z,91900.91
2023-05-01T15:35:17.541Z,91905.34
2023-05-01T15:37:46.268Z,91904.92
2023-05-01T15:40:14.385Z,91902.45
2023-05-01T15:42:43.091Z,91903.50
2023-05-01T15:45:11.413Z,91903.18
2023-05-01T15:47:39.554Z,91905.94
2023-05-01T15:50:10.981Z,91908.73
2023-05-01T15:52:39.319Z,91913.07
2023-05-01T15:55:07.589Z,91913.85
2023-05-01T15:57:35.919Z,91914.91
2023-05-01T16:00:04.671Z,91914.21
2023-05-01T16:02:33.094Z,91913.80
2023-05-01T16:05:01.434Z,91916.36
2023-05-01T16:07:29.750Z,91915.85
2023-05-01T16:09:58.499Z,91912.92
2023-05-01T16:12:30.323Z,91915.85
2023-05-01T16:15:01.215Z,91916.05
2023-05-01T16:17:31.506Z,91916.58
2023-05-01T16:20:01.268Z,91919.94
2023-05-01T16:22:29.842Z,91918.81
2023-05-01T16:24:58.089Z,91920.59
2023-05-01T16:27:26.219Z,91926.26
2023-05-01T16:29:54.416Z,91925.05
2023-05-01T16:32:24.279Z,91927.30
2023-05-01T16:34:52.480Z,91926.39
2023-05-01T16:37:22.306Z,91927.96
2023-05-01T16:39:50.423Z,91931.76
2023-05-01T16:42:18.712Z,91934.92
2023-05-01T16:44:46.884Z,91939.27
2023-05-01T16:47:15.045Z,91941.11
2023-05-01T16:49:43.276Z,91939.98
2023-05-01T16:52:14.334Z,91941.19
2023-05-01T16:54:42.487Z,91944.24
2023-05-01T16:57:10.902Z,91950.77
2023-05-01T16:59:39.063Z,91948.70
2023-05-01T17:02:07.422Z,91958.69
2023-05-01T17:04:35.910Z,91960.70
2023-05-01T17:07:03.966Z,91964.49
2023-05-01T17:09:32.577Z,91967.94
2023-05-01T17:12:00.710Z,91968.84
2023-05-01T17:14:30.505Z,91970.04
2023-05-01T17:16:58.985Z,91971.99
2023-05-01T17:19:27.140Z,91971.11
2023-05-01T17:21:57.210Z,91972.52
2023-05-01T17:24:26.997Z,91978.79
2023-05-01T17:26:55.558Z,91984.14
2023-05-01T17:29:24.075Z,91985.30
2023-05-01T17:31:52.236Z,91982.50
2023-05-01T17:34:20.400Z,91986.48
2023-05-01T17:36:48.551Z,91985.23
2023-05-01T17:39:16.865Z,91996.34
2023-05-01T17:41:45.400Z,91997.20
2023-05-01T17:44:13.532Z,92002.64
2023-05-01T17:46:41.733Z,92009.30
2023-05-01T17:49:09.840Z,92013.45
2023-05-01T17:51:37.966Z,92018.82
2023-05-01T17:54:06.233Z,92025.33
2023-05-01T17:56:34.459Z,92024.07
2023-05-01T17:59:02.649Z,92027.59
2023-05-01T18:01:31.161Z,92033.84
2023-05-01T18:03:59.557Z,92040.54
2023-05-01T18:06:27.932Z,92045.27
2023-05-01T18:08:56.137Z,92044.10
2023-05-01T18:11:24.526Z,92046.75
2023-05-01T18:13:52.566Z,92046.72
2023-05-01T18:16:20.931Z,92048.40
2023-05-01T18:18:49.039Z,92053.95
2023-05-01T18:21:17.236Z,92053.17
2023-05-01T18:23:48.669Z,92053.77
2023-05-01T18:26:17.113Z,92055.05
2023-05-01T18:28:45.287Z,92057.92
2023-05-01T18:31:14.668Z,92059.42
2023-05-01T18:33:42.800Z,92061.52
2023-05-01T18:36:10.945Z,92063.23
2023-05-01T18:38:39.026Z,92066.89
2023-05-01T18:41:07.432Z,92069.40
2023-05-01T18:43:35.751Z,92076.11
2023-05-01T18:46:03.890Z,92076.44
2023-05-01T18:48:32.044Z,92079.09
2023-05-01T18:51:08.619Z,92080.63
2023-05-01T18:53:37.445Z,92085.32
2023-05-01T18:56:06.389Z,92092.03
2023-05-01T18:58:34.512Z,92096.64
2023-05-01T19:01:02.637Z,92093.09
2023-05-01T19:03:30.771Z,92099.41
2023-05-01T19:05:59.263Z,92100.83
2023-05-01T19:08:27.481Z,92104.41
2023-05-01T19:10:55.549Z,92101.08
2023-05-01T19:13:23.651Z,92105.00
2023-05-01T19:15:51.708Z,92109.12
2023-05-01T19:18:19.753Z,92117.45
2023-05-01T19:20:47.953Z,92121.66
2023-05-01T19:23:16.281Z,92118.23
2023-05-01T19:25:44.385Z,92119.35
2023-05-01T19:28:12.498Z,92120.67
2023-05-01T19:30:41.436Z,92122.76
2023-05-01T19:33:09.702Z,92125.52
2023-05-01T19:35:38.642Z,92125.72
2023-05-01T19:38:06.853Z,92128.56
2023-05-01T19:40:34.940Z,92128.09
2023-05-01T19:43:03.105Z,92128.89
2023-05-01T19:45:31.343Z,92128.10
2023-05-01T19:47:59.915Z,92124.54
2023-05-01T19:50:28.215Z,92125.02
2023-05-01T19:52:56.299Z,92125.13
2023-05-01T19:55:24.360Z,92128.53
2023-05-01T19:57:52.822Z,92129.39
2023-05-01T20:00:21.027Z,92128.88
2023-05-01T20:02:49.252Z,92129.71
2023-05-01T20:05:17.471Z,92138.52
2023-05-01T20:07:45.580Z,92141.36
2023-05-01T20:10:13.749Z,92143.55
2023-05-01T20:12:43.394Z,92145.15
2023-05-01T20:15:12.133Z,92148.85
2023-05-01T20:17:40.317Z,92147.73
2023-05-01T20:20:08.962Z,92147.36
2023-05-01T20:22:36.974Z,92148.12
2023-05-01T20:25:06.390Z,92151.44
2023-05-01T20:27:36.334Z,92155.48
2023-05-01T20:30:04.852Z,92159.09
2023-05-01T20:32:33.513Z,92160.81
2023-05-01T20:35:01.807Z,92157.96
2023-05-01T20:37:29.966Z,92159.24
2023-05-01T20:39:58.274Z,92161.95
2023-05-01T20:42:27.973Z,92160.88
2023-05-01T20:44:56.494Z,92158.33
2023-05-01T20:47:24.687Z,92161.62
2023-05-01T20:49:52.745Z,92161.48
2023-05-01T20:52:20.903Z,92161.78
2023-05-01T20:54:48.962Z,92167.02
2023-05-01T20:57:17.266Z,92169.42
2023-05-01T20:59:49.184Z,92166.04
2023-05-01T21:02:17.463Z,92167.75
2023-05-01T21:04:48.518Z,92168.64
2023-05-01T21:07:16.662Z,92168.12
2023-05-01T21:09:45.856Z,92173.96
2023-05-01T21:12:14.706Z,92176.42
2023-05-01T21:14:42.808Z,92179.73
2023-05-01T21:17:10.983Z,92176.41
2023-05-01T21:19:43.523Z,92179.39
2023-05-01T21:22:20.655Z,92177.36
2023-05-01T21:24:51.397Z,92180.51
2023-05-01T21:27:19.542Z,92179.06
2023-05-01T21:29:53.026Z,92179.36
2023-05-01T21:32:21.211Z,92184.45
2023-05-01T21:34:52.324Z,92185.86
2023-05-01T21:37:20.545Z,92190.81
2023-05-01T21:39:50.182Z,92190.56
2023-05-01T21:42:18.402Z,92192.34
2023-05-01T21:44:46.593Z,92195.77
2023-05-01T21:47:15.992Z,92195.15
2023-05-01T21:49:44.174Z,92195.95
2023-05-01T21:52:14.871Z,92199.45
2023-05-01T21:54:43.011Z,92199.88
2023-05-01T21:57:11.361Z,92200.33
2023-05-01T21:59:39.511Z,92203.52
2023-05-01T22:02:08.656Z,92206.30
2023-05-01T22:04:37.411Z,92207.48
2023-05-01T22:07:06.070Z,92205.68
2023-05-01T22:09:34.226Z,92206.71
2023-05-01T22:12:02.664Z,92210.90
2023-05-01T22:14:40.272Z,92210.22
2023-05-01T22:17:15.308Z,92212.45
2023-05-01T22:19:44.627Z,92214.52
2023-05-01T22:22:12.864Z,92210.02
2023-05-01T22:24:41.012Z,92208.42
2023-05-01T22:27:09.269Z,92207.80
2023-05-01T22:29:37.634Z,92211.30
2023-05-01T22:32:06.740Z,92214.94
2023-05-01T22:34:35.011Z,92213.65
2023-05-01T22:37:03.232Z,92208.70
2023-05-01T22:39:31.476Z,92207.55
2023-05-01T22:42:00.177Z,92206.55
2023-05-01T22:44:28.613Z,92210.20
2023-05-01T22:46:56.928Z,92207.70
2023-05-01T22:49:28.746Z,92207.00
2023-05-01T22:51:57.389Z,92207.21
2023-05-01T22:54:25.937Z,92201.96
2023-05-01T22:56:54.230Z,92204.06
2023-05-01T22:59:22.394Z,92204.25
2023-05-01T23:01:50.939Z,92205.55
2023-05-01T23:04:19.386Z,92202.22
2023-05-01T23:06:47.764Z,92202.86
2023-05-01T23:09:16.146Z,92201.58
2023-05-01T23:11:46.389Z,92197.48
2023-05-01T23:14:18.439Z,92200.34
2023-05-01T23:16:46.741Z,92200.19
2023-05-01T23:19:18.985Z,92198.31
2023-05-01T23:21:47.347Z,92197.77
2023-05-01T23:24:19.435Z,92201.02
2023-05-01T23:26:47.661Z,92198.80
2023-05-01T23:29:16.547Z,92196.66
2023-05-01T23:31:46.921Z,92196.98
2023-05-01T23:34:17.261Z,92198.88
2023-05-01T23:36:46.532Z,92199.44
2023-05-01T23:39:14.654Z,92198.70
2023-05-01T23:41:43.098Z,92199.33
2023-05-01T23:44:11.386Z,92197.91
2023-05-01T23:46:39.840Z,92198.61
2023-05-01T23:49:07.995Z,92198.20
2023-05-01T23:51:37.024Z,92195.91
2023-05-01T23:54:05.200Z,92195.28
2023-05-01T23:56:33.388Z,92195.23
2023-05-01T23:59:01.732Z,92190.39
